sensor_id;sensor_type;location;lat;lon;timestamp;pressure;altitude;pressure_sealevel;temperature;humidity
73242;BME280;65659;49.234;-2.094;2023-05-12T00:01:35;100700.02;;;15.73;46.83
73242;BME280;65659;49.234;-2.094;2023-05-12T00:04:00;100696.88;;;15.63;46.73
73242;BME280;65659;49.234;-2.094;2023-05-12T00:06:27;100692.80;;;15.55;46.81
73242;BME280;65659;49.234;-2.094;2023-05-12T00:08:52;100690.67;;;15.74;46.69
73242;BME280;65659;49.234;-2.094;2023-05-12T00:11:17;100688.11;;;15.69;46.79
73242;BME280;65659;49.234;-2.094;2023-05-12T00:13:42;100689.04;;;15.85;46.99
73242;BME280;65659;49.234;-2.094;2023-05-12T00:16:08;100689.47;;;15.58;47.26
73242;BME280;65659;49.234;-2.094;2023-05-12T00:18:33;100689.65;;;15.34;47.63
73242;BME280;65659;49.234;-2.094;2023-05-12T00:20:59;100691.96;;;15.78;47.80
73242;BME280;65659;49.234;-2.094;2023-05-12T00:23:24;100691.89;;;15.51;47.77
73242;BME280;65659;49.234;-2.094;2023-05-12T00:25:50;100691.90;;;15.73;47.84
73242;BME280;65659;49.234;-2.094;2023-05-12T00:28:15;100695.92;;;15.24;47.95
73242;BME280;65659;49.234;-2.094;2023-05-12T00:30:40;100694.29;;;15.48;48.20
73242;BME280;65659;49.234;-2.094;2023-05-12T00:33:06;100692.24;;;15.50;48.24
73242;BME280;65659;49.234;-2.094;2023-05-12T00:35:31;100688.24;;;15.26;48.18
73242;BME280;65659;49.234;-2.094;2023-05-12T00:37:57;100686.11;;;15.23;48.18
73242;BME280;65659;49.234;-2.094;2023-05-12T00:40:23;100687.08;;;15.20;48.26
73242;BME280;65659;49.234;-2.094;2023-05-12T00:42:48;100687.15;;;15.19;48.37
73242;BME280;65659;49.234;-2.094;2023-05-12T00:45:13;100686.63;;;15.19;48.43
73242;BME280;65659;49.234;-2.094;2023-05-12T00:47:39;100688.94;;;15.66;48.48
73242;BME280;65659;49.234;-2.094;2023-05-12T00:50:06;100687.52;;;15.16;48.53
73242;BME280;65659;49.234;-2.094;2023-05-12T00:52:31;100692.15;;;15.64;48.65
73242;BME280;65659;49.234;-2.094;2023-05-12T00:54:56;100692.35;;;15.61;48.80
73242;BME280;65659;49.234;-2.094;2023-05-12T00:57:24;100690.21;;;15.36;48.82
73242;BME280;65659;49.234;-2.094;2023-05-12T00:59:46;100694.68;;;15.61;49.01
73242;BME280;65659;49.234;-2.094;2023-05-12T01:02:13;100696.64;;;15.63;49.08
73242;BME280;65659;49.234;-2.094;2023-05-12T01:04:38;100697.24;;;15.64;49.17
73242;BME280;65659;49.234;-2.094;2023-05-12T01:07:06;100695.99;;;15.66;49.14
73242;BME280;65659;49.234;-2.094;2023-05-12T01:09:29;100693.49;;;15.20;49.04
73242;BME280;65659;49.234;-2.094;2023-05-12T01:11:54;100684.81;;;15.19;49.15
73242;BME280;65659;49.234;-2.094;2023-05-12T01:14:20;100680.97;;;15.67;48.89
73242;BME280;65659;49.234;-2.094;2023-05-12T01:16:50;100680.84;;;15.40;48.33
73242;BME280;65659;49.234;-2.094;2023-05-12T01:19:21;100689.96;;;15.59;48.42
73242;BME280;65659;49.234;-2.094;2023-05-12T01:21:36;100693.78;;;15.34;48.57
73242;BME280;65659;49.234;-2.094;2023-05-12T01:24:06;100693.45;;;15.30;48.75
73242;BME280;65659;49.234;-2.094;2023-05-12T01:26:28;100693.35;;;14.84;48.97
73242;BME280;65659;49.234;-2.094;2023-05-12T01:28:53;100695.57;;;15.13;48.78
73242;BME280;65659;49.234;-2.094;2023-05-12T01:31:19;100697.98;;;15.59;49.18
73242;BME280;65659;49.234;-2.094;2023-05-12T01:33:43;100699.85;;;15.34;49.47
73242;BME280;65659;49.234;-2.094;2023-05-12T01:36:09;100697.83;;;15.63;49.60
73242;BME280;65659;49.234;-2.094;2023-05-12T01:38:34;100699.19;;;15.22;49.77
73242;BME280;65659;49.234;-2.094;2023-05-12T01:41:00;100698.05;;;15.50;49.74
73242;BME280;65659;49.234;-2.094;2023-05-12T01:43:25;100695.02;;;15.31;49.65
73242;BME280;65659;49.234;-2.094;2023-05-12T01:45:51;100692.65;;;15.61;49.53
73242;BME280;65659;49.234;-2.094;2023-05-12T01:48:16;100691.78;;;15.40;49.42
73242;BME280;65659;49.234;-2.094;2023-05-12T01:50:42;100695.56;;;15.44;49.53
73242;BME280;65659;49.234;-2.094;2023-05-12T01:53:07;100696.27;;;15.97;49.81
73242;BME280;65659;49.234;-2.094;2023-05-12T01:55:33;100694.66;;;15.54;49.96
73242;BME280;65659;49.234;-2.094;2023-05-12T01:57:58;100695.73;;;15.63;50.00
73242;BME280;65659;49.234;-2.094;2023-05-12T02:00:23;100695.83;;;15.95;50.02
73242;BME280;65659;49.234;-2.094;2023-05-12T02:02:48;100696.58;;;15.55;49.91
73242;BME280;65659;49.234;-2.094;2023-05-12T02:05:14;100698.14;;;15.81;49.65
73242;BME280;65659;49.234;-2.094;2023-05-12T02:07:39;100698.07;;;16.13;49.68
73242;BME280;65659;49.234;-2.094;2023-05-12T02:10:06;100697.05;;;16.17;49.69
73242;BME280;65659;49.234;-2.094;2023-05-12T02:12:30;100694.33;;;16.22;49.66
73242;BME280;65659;49.234;-2.094;2023-05-12T02:14:55;100695.79;;;16.30;49.61
73242;BME280;65659;49.234;-2.094;2023-05-12T02:17:21;100697.83;;;16.35;49.63
73242;BME280;65659;49.234;-2.094;2023-05-12T02:19:46;100705.12;;;16.19;49.54
73242;BME280;65659;49.234;-2.094;2023-05-12T02:22:14;100704.21;;;16.47;49.58
73242;BME280;65659;49.234;-2.094;2023-05-12T02:24:37;100712.43;;;16.29;49.51
73242;BME280;65659;49.234;-2.094;2023-05-12T02:27:03;100710.68;;;16.34;49.55
73242;BME280;65659;49.234;-2.094;2023-05-12T02:29:28;100712.89;;;16.66;49.54
73242;BME280;65659;49.234;-2.094;2023-05-12T02:31:54;100714.31;;;16.72;49.52
73242;BME280;65659;49.234;-2.094;2023-05-12T02:34:19;100714.71;;;16.37;49.39
73242;BME280;65659;49.234;-2.094;2023-05-12T02:36:44;100713.68;;;16.71;48.91
73242;BME280;65659;49.234;-2.094;2023-05-12T02:39:10;100718.49;;;16.98;48.50
73242;BME280;65659;49.234;-2.094;2023-05-12T02:41:35;100715.56;;;17.16;48.28
73242;BME280;65659;49.234;-2.094;2023-05-12T02:44:01;100716.60;;;17.07;48.10
73242;BME280;65659;49.234;-2.094;2023-05-12T02:46:26;100718.88;;;17.18;47.95
73242;BME280;65659;49.234;-2.094;2023-05-12T02:48:52;100720.23;;;17.27;47.87
73242;BME280;65659;49.234;-2.094;2023-05-12T02:51:17;100720.80;;;17.12;47.75
73242;BME280;65659;49.234;-2.094;2023-05-12T02:53:43;100714.86;;;17.20;47.67
73242;BME280;65659;49.234;-2.094;2023-05-12T02:56:08;100713.90;;;17.49;47.58
73242;BME280;65659;49.234;-2.094;2023-05-12T02:58:34;100713.52;;;17.32;47.51
73242;BME280;65659;49.234;-2.094;2023-05-12T03:01:00;100708.99;;;17.63;47.40
73242;BME280;65659;49.234;-2.094;2023-05-12T03:03:25;100708.75;;;17.45;47.29
73242;BME280;65659;49.234;-2.094;2023-05-12T03:05:50;100713.42;;;17.75;47.21
73242;BME280;65659;49.234;-2.094;2023-05-12T03:08:16;100714.47;;;17.55;47.14
73242;BME280;65659;49.234;-2.094;2023-05-12T03:10:41;100713.69;;;17.60;47.05
73242;BME280;65659;49.234;-2.094;2023-05-12T03:13:07;100709.14;;;17.62;46.95
73242;BME280;65659;49.234;-2.094;2023-05-12T03:15:32;100705.86;;;17.64;46.94
73242;BME280;65659;49.234;-2.094;2023-05-12T03:17:58;100705.47;;;18.15;46.91
73242;BME280;65659;49.234;-2.094;2023-05-12T03:20:24;100703.80;;;17.69;46.88
73242;BME280;65659;49.234;-2.094;2023-05-12T03:22:50;100701.46;;;17.71;46.82
73242;BME280;65659;49.234;-2.094;2023-05-12T03:25:15;100700.86;;;17.49;46.78
73242;BME280;65659;49.234;-2.094;2023-05-12T03:27:40;100702.94;;;17.75;46.71
73242;BME280;65659;49.234;-2.094;2023-05-12T03:30:08;100703.02;;;17.74;46.71
73242;BME280;65659;49.234;-2.094;2023-05-12T03:32:32;100704.78;;;17.74;46.69
73242;BME280;65659;49.234;-2.094;2023-05-12T03:34:57;100701.98;;;17.53;46.66
73242;BME280;65659;49.234;-2.094;2023-05-12T03:37:23;100701.16;;;17.56;46.61
73242;BME280;65659;49.234;-2.094;2023-05-12T03:39:48;100700.51;;;17.79;46.58
73242;BME280;65659;49.234;-2.094;2023-05-12T03:42:15;100699.25;;;17.53;46.51
73242;BME280;65659;49.234;-2.094;2023-05-12T03:44:40;100701.85;;;17.74;46.54
73242;BME280;65659;49.234;-2.094;2023-05-12T03:47:05;100705.76;;;17.71;46.51
73242;BME280;65659;49.234;-2.094;2023-05-12T03:49:30;100705.76;;;17.68;46.47
73242;BME280;65659;49.234;-2.094;2023-05-12T03:51:56;100708.25;;;17.66;46.44
73242;BME280;65659;49.234;-2.094;2023-05-12T03:54:21;100708.10;;;17.40;46.39
73242;BME280;65659;49.234;-2.094;2023-05-12T03:56:47;100709.78;;;17.62;46.40
73242;BME280;65659;49.234;-2.094;2023-05-12T03:59:13;100709.33;;;17.60;46.47
73242;BME280;65659;49.234;-2.094;2023-05-12T04:01:37;100710.08;;;17.57;46.48
73242;BME280;65659;49.234;-2.094;2023-05-12T04:04:03;100710.55;;;17.52;46.55
73242;BME280;65659;49.234;-2.094;2023-05-12T04:06:28;100711.98;;;17.48;46.59
73242;BME280;65659;49.234;-2.094;2023-05-12T04:08:54;100712.00;;;17.45;46.59
73242;BME280;65659;49.234;-2.094;2023-05-12T04:11:20;100712.61;;;17.39;46.60
73242;BME280;65659;49.234;-2.094;2023-05-12T04:13:45;100714.85;;;17.54;46.65
73242;BME280;65659;49.234;-2.094;2023-05-12T04:16:10;100714.74;;;17.25;46.60
73242;BME280;65659;49.234;-2.094;2023-05-12T04:18:35;100713.92;;;17.17;46.62
73242;BME280;65659;49.234;-2.094;2023-05-12T04:21:01;100717.00;;;17.09;46.61
73242;BME280;65659;49.234;-2.094;2023-05-12T04:23:26;100716.36;;;16.99;46.65
73242;BME280;65659;49.234;-2.094;2023-05-12T04:25:51;100715.81;;;17.13;46.78
73242;BME280;65659;49.234;-2.094;2023-05-12T04:28:18;100713.76;;;16.79;46.91
73242;BME280;65659;49.234;-2.094;2023-05-12T04:30:42;100717.77;;;16.93;47.01
73242;BME280;65659;49.234;-2.094;2023-05-12T04:33:08;100717.96;;;17.08;47.13
73242;BME280;65659;49.234;-2.094;2023-05-12T04:35:33;100726.53;;;16.75;47.23
73242;BME280;65659;49.234;-2.094;2023-05-12T04:37:58;100729.99;;;16.89;47.38
73242;BME280;65659;49.234;-2.094;2023-05-12T04:40:23;100734.11;;;16.81;47.48
73242;BME280;65659;49.234;-2.094;2023-05-12T04:42:48;100737.48;;;16.77;47.56
73242;BME280;65659;49.234;-2.094;2023-05-12T04:45:14;100736.58;;;16.25;47.64
73242;BME280;65659;49.234;-2.094;2023-05-12T04:47:40;100737.96;;;16.71;47.72
73242;BME280;65659;49.234;-2.094;2023-05-12T04:50:07;100744.61;;;16.74;47.75
73242;BME280;65659;49.234;-2.094;2023-05-12T04:52:31;100744.00;;;16.76;47.90
73242;BME280;65659;49.234;-2.094;2023-05-12T04:54:56;100746.61;;;16.57;47.97
73242;BME280;65659;49.234;-2.094;2023-05-12T04:57:22;100746.32;;;16.84;48.08
73242;BME280;65659;49.234;-2.094;2023-05-12T04:59:47;100753.47;;;16.88;48.17
73242;BME280;65659;49.234;-2.094;2023-05-12T05:02:19;100755.13;;;16.95;48.16
73242;BME280;65659;49.234;-2.094;2023-05-12T05:04:38;100756.93;;;17.00;48.28
73242;BME280;65659;49.234;-2.094;2023-05-12T05:07:04;100757.92;;;17.09;48.32
73242;BME280;65659;49.234;-2.094;2023-05-12T05:09:29;100757.78;;;16.92;48.43
73242;BME280;65659;49.234;-2.094;2023-05-12T05:11:54;100757.45;;;17.20;48.43
73242;BME280;65659;49.234;-2.094;2023-05-12T05:14:19;100756.90;;;16.81;48.38
73242;BME280;65659;49.234;-2.094;2023-05-12T05:16:45;100754.39;;;17.45;48.23
73242;BME280;65659;49.234;-2.094;2023-05-12T05:19:10;100764.29;;;17.24;48.71
73242;BME280;65659;49.234;-2.094;2023-05-12T05:21:36;100767.23;;;17.38;49.09
73242;BME280;65659;49.234;-2.094;2023-05-12T05:24:01;100772.87;;;17.09;49.31
73242;BME280;65659;49.234;-2.094;2023-05-12T05:26:27;100770.33;;;17.12;49.41
73242;BME280;65659;49.234;-2.094;2023-05-12T05:28:52;100771.74;;;17.15;49.53
73242;BME280;65659;49.234;-2.094;2023-05-12T05:31:18;100774.04;;;17.21;49.54
73242;BME280;65659;49.234;-2.094;2023-05-12T05:33:43;100774.66;;;17.22;49.56
73242;BME280;65659;49.234;-2.094;2023-05-12T05:36:08;100780.39;;;17.49;49.26
73242;BME280;65659;49.234;-2.094;2023-05-12T05:38:34;100778.98;;;17.59;49.24
73242;BME280;65659;49.234;-2.094;2023-05-12T05:41:00;100784.06;;;17.62;49.34
73242;BME280;65659;49.234;-2.094;2023-05-12T05:43:25;100786.40;;;17.63;49.37
73242;BME280;65659;49.234;-2.094;2023-05-12T05:45:50;100789.52;;;17.73;49.36
73242;BME280;65659;49.234;-2.094;2023-05-12T05:48:16;100792.41;;;17.80;49.17
73242;BME280;65659;49.234;-2.094;2023-05-12T05:50:41;100795.97;;;17.63;49.02
73242;BME280;65659;49.234;-2.094;2023-05-12T05:53:06;100795.51;;;17.97;48.67
73242;BME280;65659;49.234;-2.094;2023-05-12T05:55:32;100798.69;;;17.60;48.47
73242;BME280;65659;49.234;-2.094;2023-05-12T05:57:57;100798.33;;;17.93;48.38
73242;BME280;65659;49.234;-2.094;2023-05-12T06:00:23;100798.30;;;17.73;48.18
73242;BME280;65659;49.234;-2.094;2023-05-12T06:02:48;100800.09;;;18.01;48.13
73242;BME280;65659;49.234;-2.094;2023-05-12T06:05:14;100802.39;;;17.77;47.89
73242;BME280;65659;49.234;-2.094;2023-05-12T06:07:40;100805.97;;;17.63;47.63
73242;BME280;65659;49.234;-2.094;2023-05-12T06:10:06;100807.18;;;17.88;47.20
73242;BME280;65659;49.234;-2.094;2023-05-12T06:12:31;100803.60;;;18.09;46.66
73242;BME280;65659;49.234;-2.094;2023-05-12T06:14:57;100812.34;;;18.50;46.35
73242;BME280;65659;49.234;-2.094;2023-05-12T06:17:22;100816.08;;;18.15;46.01
73242;BME280;65659;49.234;-2.094;2023-05-12T06:19:48;100818.78;;;18.17;45.88
73242;BME280;65659;49.234;-2.094;2023-05-12T06:22:14;100819.70;;;18.23;45.73
73242;BME280;65659;49.234;-2.094;2023-05-12T06:24:40;100819.52;;;18.22;45.41
73242;BME280;65659;49.234;-2.094;2023-05-12T06:27:05;100821.00;;;18.34;45.38
73242;BME280;65659;49.234;-2.094;2023-05-12T06:29:30;100824.26;;;18.14;45.22
73242;BME280;65659;49.234;-2.094;2023-05-12T06:31:55;100825.33;;;18.46;44.83
73242;BME280;65659;49.234;-2.094;2023-05-12T06:34:21;100827.42;;;18.21;44.56
73242;BME280;65659;49.234;-2.094;2023-05-12T06:36:47;100830.40;;;18.53;44.12
73242;BME280;65659;49.234;-2.094;2023-05-12T06:39:13;100830.02;;;18.56;44.13
73242;BME280;65659;49.234;-2.094;2023-05-12T06:41:37;100832.82;;;18.61;43.89
73242;BME280;65659;49.234;-2.094;2023-05-12T06:44:03;100834.55;;;18.20;43.77
73242;BME280;65659;49.234;-2.094;2023-05-12T06:46:29;100840.80;;;18.35;43.64
73242;BME280;65659;49.234;-2.094;2023-05-12T06:48:55;100845.18;;;18.48;43.33
73242;BME280;65659;49.234;-2.094;2023-05-12T06:51:21;100849.00;;;18.54;42.91
73242;BME280;65659;49.234;-2.094;2023-05-12T06:53:45;100846.61;;;18.57;42.76
73242;BME280;65659;49.234;-2.094;2023-05-12T06:56:11;100853.58;;;18.39;42.72
73242;BME280;65659;49.234;-2.094;2023-05-12T06:58:37;100853.63;;;18.47;42.26
73242;BME280;65659;49.234;-2.094;2023-05-12T07:01:03;100857.70;;;18.60;41.84
73242;BME280;65659;49.234;-2.094;2023-05-12T07:03:31;100862.18;;;18.15;41.68
73242;BME280;65659;49.234;-2.094;2023-05-12T07:05:54;100863.75;;;18.42;41.57
73242;BME280;65659;49.234;-2.094;2023-05-12T07:08:20;100866.60;;;18.71;41.28
73242;BME280;65659;49.234;-2.094;2023-05-12T07:10:45;100868.05;;;18.44;41.22
73242;BME280;65659;49.234;-2.094;2023-05-12T07:13:10;100869.54;;;18.51;41.05
73242;BME280;65659;49.234;-2.094;2023-05-12T07:15:36;100873.43;;;18.36;41.12
73242;BME280;65659;49.234;-2.094;2023-05-12T07:18:02;100873.53;;;18.49;40.85
73242;BME280;65659;49.234;-2.094;2023-05-12T07:20:27;100876.63;;;18.53;40.47
73242;BME280;65659;49.234;-2.094;2023-05-12T07:22:54;100875.76;;;18.57;40.22
73242;BME280;65659;49.234;-2.094;2023-05-12T07:25:18;100879.55;;;18.21;40.03
73242;BME280;65659;49.234;-2.094;2023-05-12T07:27:44;100881.31;;;18.37;39.82
73242;BME280;65659;49.234;-2.094;2023-05-12T07:30:10;100886.35;;;18.40;39.49
73242;BME280;65659;49.234;-2.094;2023-05-12T07:32:35;100885.74;;;18.37;39.24
73242;BME280;65659;49.234;-2.094;2023-05-12T07:35:03;100888.31;;;18.24;39.13
73242;BME280;65659;49.234;-2.094;2023-05-12T07:37:26;100885.29;;;18.69;39.17
73242;BME280;65659;49.234;-2.094;2023-05-12T07:42:17;100889.76;;;18.42;39.75
73242;BME280;65659;49.234;-2.094;2023-05-12T07:44:48;100890.32;;;18.50;39.56
73242;BME280;65659;49.234;-2.094;2023-05-12T07:47:09;100892.84;;;18.46;39.30
73242;BME280;65659;49.234;-2.094;2023-05-12T07:49:34;100892.85;;;18.80;38.85
73242;BME280;65659;49.234;-2.094;2023-05-12T07:51:59;100895.22;;;19.14;38.79
73242;BME280;65659;49.234;-2.094;2023-05-12T07:54:27;100897.24;;;19.00;38.62
73242;BME280;65659;49.234;-2.094;2023-05-12T07:56:51;100898.06;;;19.41;38.42
73242;BME280;65659;49.234;-2.094;2023-05-12T07:59:17;100901.52;;;19.13;38.22
73242;BME280;65659;49.234;-2.094;2023-05-12T08:01:43;100899.61;;;19.27;37.58
73242;BME280;65659;49.234;-2.094;2023-05-12T08:04:08;100897.67;;;19.28;37.17
73242;BME280;65659;49.234;-2.094;2023-05-12T08:06:34;100899.91;;;19.49;36.90
73242;BME280;65659;49.234;-2.094;2023-05-12T08:09:00;100896.60;;;19.61;36.83
73242;BME280;65659;49.234;-2.094;2023-05-12T08:11:26;100905.67;;;19.71;36.71
73242;BME280;65659;49.234;-2.094;2023-05-12T08:13:52;100905.27;;;19.50;36.54
73242;BME280;65659;49.234;-2.094;2023-05-12T08:16:17;100908.93;;;19.70;36.17
73242;BME280;65659;49.234;-2.094;2023-05-12T08:18:46;100913.00;;;19.76;35.93
73242;BME280;65659;49.234;-2.094;2023-05-12T08:21:09;100916.93;;;19.96;35.78
73242;BME280;65659;49.234;-2.094;2023-05-12T08:23:34;100919.57;;;19.89;35.68
73242;BME280;65659;49.234;-2.094;2023-05-12T08:25:59;100922.80;;;20.19;35.26
73242;BME280;65659;49.234;-2.094;2023-05-12T08:28:25;100922.82;;;20.47;34.78
73242;BME280;65659;49.234;-2.094;2023-05-12T08:30:51;100926.62;;;20.27;34.82
73242;BME280;65659;49.234;-2.094;2023-05-12T08:33:16;100929.49;;;20.15;34.57
73242;BME280;65659;49.234;-2.094;2023-05-12T08:35:43;100935.53;;;20.17;34.51
73242;BME280;65659;49.234;-2.094;2023-05-12T08:38:08;100936.73;;;20.27;34.42
73242;BME280;65659;49.234;-2.094;2023-05-12T08:40:40;100937.98;;;20.40;34.31
73242;BME280;65659;49.234;-2.094;2023-05-12T08:43:06;100939.65;;;20.68;34.12
73242;BME280;65659;49.234;-2.094;2023-05-12T08:45:25;100945.98;;;20.59;34.20
73242;BME280;65659;49.234;-2.094;2023-05-12T08:47:52;100945.15;;;20.73;34.14
73242;BME280;65659;49.234;-2.094;2023-05-12T08:50:18;100943.79;;;20.64;33.82
73242;BME280;65659;49.234;-2.094;2023-05-12T08:52:43;100947.22;;;20.55;33.58
73242;BME280;65659;49.234;-2.094;2023-05-12T08:55:11;100942.13;;;20.94;33.46
73242;BME280;65659;49.234;-2.094;2023-05-12T08:57:34;100943.42;;;21.13;33.32
73242;BME280;65659;49.234;-2.094;2023-05-12T09:00:01;100945.64;;;21.28;33.09
73242;BME280;65659;49.234;-2.094;2023-05-12T09:02:27;100948.35;;;21.18;33.23
73242;BME280;65659;49.234;-2.094;2023-05-12T09:04:51;100949.22;;;21.37;32.92
73242;BME280;65659;49.234;-2.094;2023-05-12T09:07:18;100947.68;;;21.72;32.83
73242;BME280;65659;49.234;-2.094;2023-05-12T09:09:44;100946.73;;;21.49;32.57
73242;BME280;65659;49.234;-2.094;2023-05-12T09:12:13;100954.28;;;21.40;32.65
73242;BME280;65659;49.234;-2.094;2023-05-12T09:14:34;100957.79;;;21.29;32.97
73242;BME280;65659;49.234;-2.094;2023-05-12T09:17:02;100962.85;;;21.83;33.15
73242;BME280;65659;49.234;-2.094;2023-05-12T09:19:25;100965.68;;;21.34;33.36
73242;BME280;65659;49.234;-2.094;2023-05-12T09:21:49;100962.41;;;21.36;33.36
73242;BME280;65659;49.234;-2.094;2023-05-12T09:24:17;100963.71;;;21.38;33.59
73242;BME280;65659;49.234;-2.094;2023-05-12T09:26:47;100966.34;;;21.79;33.94
73242;BME280;65659;49.234;-2.094;2023-05-12T09:29:07;100968.87;;;21.15;34.04
73242;BME280;65659;49.234;-2.094;2023-05-12T09:31:32;100970.33;;;21.23;33.68
73242;BME280;65659;49.234;-2.094;2023-05-12T09:33:58;100972.05;;;21.18;33.54
73242;BME280;65659;49.234;-2.094;2023-05-12T09:36:24;100972.35;;;21.28;33.24
73242;BME280;65659;49.234;-2.094;2023-05-12T09:38:58;100975.32;;;21.19;33.26
73242;BME280;65659;49.234;-2.094;2023-05-12T09:41:21;100975.07;;;21.15;33.35
73242;BME280;65659;49.234;-2.094;2023-05-12T09:43:45;100977.90;;;21.01;33.55
73242;BME280;65659;49.234;-2.094;2023-05-12T09:46:06;100978.85;;;21.09;33.60
73242;BME280;65659;49.234;-2.094;2023-05-12T09:48:32;100983.68;;;21.05;33.58
73242;BME280;65659;49.234;-2.094;2023-05-12T09:50:58;100986.58;;;21.09;33.59
73242;BME280;65659;49.234;-2.094;2023-05-12T09:53:24;100990.38;;;21.04;33.36
73242;BME280;65659;49.234;-2.094;2023-05-12T09:55:50;100996.78;;;21.18;33.16
73242;BME280;65659;49.234;-2.094;2023-05-12T09:58:18;100995.73;;;21.29;33.02
73242;BME280;65659;49.234;-2.094;2023-05-12T10:00:42;100999.14;;;21.37;32.96
73242;BME280;65659;49.234;-2.094;2023-05-12T10:03:10;100997.65;;;21.20;32.79
73242;BME280;65659;49.234;-2.094;2023-05-12T10:05:34;101001.06;;;21.70;32.72
73242;BME280;65659;49.234;-2.094;2023-05-12T10:08:01;100999.18;;;21.35;32.71
73242;BME280;65659;49.234;-2.094;2023-05-12T10:10:26;100996.03;;;21.47;32.30
73242;BME280;65659;49.234;-2.094;2023-05-12T10:12:50;100997.95;;;21.40;32.38
73242;BME280;65659;49.234;-2.094;2023-05-12T10:15:17;100999.09;;;21.38;32.70
73242;BME280;65659;49.234;-2.094;2023-05-12T10:17:42;100995.52;;;21.45;32.83
73242;BME280;65659;49.234;-2.094;2023-05-12T10:20:07;101000.54;;;21.35;32.72
73242;BME280;65659;49.234;-2.094;2023-05-12T10:22:32;101000.02;;;21.09;32.46
73242;BME280;65659;49.234;-2.094;2023-05-12T10:24:57;100998.96;;;21.42;32.25
73242;BME280;65659;49.234;-2.094;2023-05-12T10:27:24;100998.92;;;21.44;32.25
73242;BME280;65659;49.234;-2.094;2023-05-12T10:29:54;101007.08;;;21.55;32.23
73242;BME280;65659;49.234;-2.094;2023-05-12T10:32:15;101003.32;;;21.29;31.89
73242;BME280;65659;49.234;-2.094;2023-05-12T10:34:48;101007.45;;;21.97;32.02
73242;BME280;65659;49.234;-2.094;2023-05-12T10:37:08;101007.79;;;21.46;32.27
73242;BME280;65659;49.234;-2.094;2023-05-12T10:39:36;101007.44;;;22.11;32.16
73242;BME280;65659;49.234;-2.094;2023-05-12T10:42:05;101008.23;;;21.21;32.38
73242;BME280;65659;49.234;-2.094;2023-05-12T10:44:27;101011.12;;;21.20;32.11
73242;BME280;65659;49.234;-2.094;2023-05-12T10:46:56;101005.12;;;21.34;32.08
73242;BME280;65659;49.234;-2.094;2023-05-12T10:49:15;101008.78;;;21.56;31.79
73242;BME280;65659;49.234;-2.094;2023-05-12T10:51:47;101011.30;;;21.61;31.83
73242;BME280;65659;49.234;-2.094;2023-05-12T10:54:07;101015.87;;;21.84;31.60
73242;BME280;65659;49.234;-2.094;2023-05-12T10:56:40;101015.27;;;21.94;31.39
73242;BME280;65659;49.234;-2.094;2023-05-12T10:59:06;101014.94;;;21.85;31.39
73242;BME280;65659;49.234;-2.094;2023-05-12T11:01:24;101014.77;;;22.04;30.99
73242;BME280;65659;49.234;-2.094;2023-05-12T11:03:48;101009.69;;;21.94;31.27
73242;BME280;65659;49.234;-2.094;2023-05-12T11:06:19;101011.23;;;22.26;30.91
73242;BME280;65659;49.234;-2.094;2023-05-12T11:08:39;101013.66;;;21.76;31.39
73242;BME280;65659;49.234;-2.094;2023-05-12T11:11:05;101017.14;;;22.43;31.82
73242;BME280;65659;49.234;-2.094;2023-05-12T11:13:30;101013.64;;;22.13;32.27
73242;BME280;65659;49.234;-2.094;2023-05-12T11:15:56;101016.46;;;22.25;32.27
73242;BME280;65659;49.234;-2.094;2023-05-12T11:18:22;101015.48;;;22.59;31.96
73242;BME280;65659;49.234;-2.094;2023-05-12T11:25:37;101014.37;;;22.63;33.00
73242;BME280;65659;49.234;-2.094;2023-05-12T11:28:09;101020.69;;;22.48;32.94
73242;BME280;65659;49.234;-2.094;2023-05-12T11:30:29;101024.73;;;22.74;32.76
73242;BME280;65659;49.234;-2.094;2023-05-12T11:33:00;101027.51;;;22.78;32.17
73242;BME280;65659;49.234;-2.094;2023-05-12T11:35:20;101024.62;;;22.91;31.83
73242;BME280;65659;49.234;-2.094;2023-05-12T11:37:46;101029.26;;;22.87;31.86
73242;BME280;65659;49.234;-2.094;2023-05-12T11:40:16;101024.14;;;23.20;31.56
73242;BME280;65659;49.234;-2.094;2023-05-12T11:42:37;101024.03;;;22.90;31.31
73242;BME280;65659;49.234;-2.094;2023-05-12T11:45:07;101020.71;;;22.70;31.50
73242;BME280;65659;49.234;-2.094;2023-05-12T11:47:28;101016.61;;;23.24;30.88
73242;BME280;65659;49.234;-2.094;2023-05-12T11:52:21;101022.08;;;23.19;31.18
73242;BME280;65659;49.234;-2.094;2023-05-12T11:54:49;101024.75;;;22.65;31.38
73242;BME280;65659;49.234;-2.094;2023-05-12T11:57:11;101028.46;;;22.84;31.16
73242;BME280;65659;49.234;-2.094;2023-05-12T11:59:36;101030.24;;;22.66;31.35
73242;BME280;65659;49.234;-2.094;2023-05-12T12:02:03;101035.69;;;22.76;31.13
73242;BME280;65659;49.234;-2.094;2023-05-12T12:04:34;101035.26;;;23.04;30.34
73242;BME280;65659;49.234;-2.094;2023-05-12T12:06:53;101035.99;;;23.16;30.19
73242;BME280;65659;49.234;-2.094;2023-05-12T12:09:19;101033.77;;;23.25;30.17
73242;BME280;65659;49.234;-2.094;2023-05-12T12:11:43;101032.22;;;23.56;30.04
73242;BME280;65659;49.234;-2.094;2023-05-12T12:14:09;101035.16;;;23.47;30.02
73242;BME280;65659;49.234;-2.094;2023-05-12T12:16:34;101043.39;;;23.73;29.40
73242;BME280;65659;49.234;-2.094;2023-05-12T12:19:00;101038.10;;;23.78;29.53
73242;BME280;65659;49.234;-2.094;2023-05-12T12:21:25;101040.81;;;23.57;29.51
73242;BME280;65659;49.234;-2.094;2023-05-12T12:23:51;101040.41;;;23.72;29.32
73242;BME280;65659;49.234;-2.094;2023-05-12T12:26:17;101039.03;;;23.66;29.44
73242;BME280;65659;49.234;-2.094;2023-05-12T12:28:45;101046.15;;;23.79;29.12
73242;BME280;65659;49.234;-2.094;2023-05-12T12:31:08;101043.45;;;23.40;29.00
73242;BME280;65659;49.234;-2.094;2023-05-12T12:33:33;101045.99;;;23.35;29.12
73242;BME280;65659;49.234;-2.094;2023-05-12T12:35:59;101045.97;;;23.50;29.09
73242;BME280;65659;49.234;-2.094;2023-05-12T12:38:25;101049.07;;;23.66;29.28
73242;BME280;65659;49.234;-2.094;2023-05-12T12:40:50;101049.02;;;23.12;29.66